sensor_id;sensor_type;location;lat;lon;timestamp;noise_LAeq;noise_LA_min;noise_LA_max;noise_LA01;noise_LA95
66335;Laerm;53138;51.496;6.410;2023-12-14T00:00:07;41.91;39.75;46.56;;
66335;Laerm;53138;51.496;6.410;2023-12-14T00:00:18;42.06;39.15;50.27;;
66335;Laerm;53138;51.496;6.410;2023-12-14T00:00:29;41.85;39.57;44.26;;
66335;Laerm;53138;51.496;6.410;2023-12-14T00:00:39;41.68;39.64;43.67;;
66335;Laerm;53138;51.496;6.410;2023-12-14T00:00:49;41.77;39.65;44.01;;
66335;Laerm;53138;51.496;6.410;2023-12-14T00:01:00;41.72;39.72;43.83;;
66335;Laerm;53138;51.496;6.410;2023-12-14T00:01:10;41.91;40.24;44.01;;
66335;Laerm;53138;51.496;6.410;2023-12-14T00:01:20;41.98;39.56;45.46;;
66335;Laerm;53138;51.496;6.410;2023-12-14T00:01:30;41.79;40.05;45.09;;
66335;Laerm;53138;51.496;6.410;2023-12-14T00:01:41;41.80;39.68;43.77;;
66335;Laerm;53138;51.496;6.410;2023-12-14T00:01:51;41.85;39.75;45.02;;
66335;Laerm;53138;51.496;6.410;2023-12-14T00:02:02;43.29;40.17;46.32;;
66335;Laerm;53138;51.496;6.410;2023-12-14T00:02:12;42.64;39.76;47.59;;
66335;Laerm;53138;51.496;6.410;2023-12-14T00:02:22;42.65;39.83;49.01;;
66335;Laerm;53138;51.496;6.410;2023-12-14T00:02:32;41.56;39.57;43.65;;
66335;Laerm;53138;51.496;6.410;2023-12-14T00:02:43;43.37;39.97;47.59;;
66335;Laerm;53138;51.496;6.410;2023-12-14T00:02:53;43.34;39.68;48.12;;
66335;Laerm;53138;51.496;6.410;2023-12-14T00:03:03;43.25;40.64;47.62;;
66335;Laerm;53138;51.496;6.410;2023-12-14T00:03:13;43.70;41.31;47.24;;
66335;Laerm;53138;51.496;6.410;2023-12-14T00:03:24;44.22;40.25;48.35;;
66335;Laerm;53138;51.496;6.410;2023-12-14T00:03:34;42.83;39.61;47.01;;
66335;Laerm;53138;51.496;6.410;2023-12-14T00:03:44;41.80;39.78;45.26;;
66335;Laerm;53138;51.496;6.410;2023-12-14T00:03:54;41.71;39.59;44.36;;
66335;Laerm;53138;51.496;6.410;2023-12-14T00:04:04;41.77;39.86;43.71;;
66335;Laerm;53138;51.496;6.410;2023-12-14T00:04:15;42.63;40.47;45.11;;
66335;Laerm;53138;51.496;6.410;2023-12-14T00:04:25;44.17;41.44;48.09;;
66335;Laerm;53138;51.496;6.410;2023-12-14T00:04:35;43.86;40.21;48.71;;
66335;Laerm;53138;51.496;6.410;2023-12-14T00:04:45;42.62;40.36;44.90;;
66335;Laerm;53138;51.496;6.410;2023-12-14T00:04:55;42.73;40.49;45.46;;
66335;Laerm;53138;51.496;6.410;2023-12-14T00:05:06;42.52;40.26;44.66;;
66335;Laerm;53138;51.496;6.410;2023-12-14T00:05:16;42.37;40.00;44.24;;
66335;Laerm;53138;51.496;6.410;2023-12-14T00:05:26;42.17;40.36;45.27;;
66335;Laerm;53138;51.496;6.410;2023-12-14T00:05:37;42.05;39.61;44.39;;
66335;Laerm;53138;51.496;6.410;2023-12-14T00:05:47;42.41;40.09;45.53;;
66335;Laerm;53138;51.496;6.410;2023-12-14T00:05:57;42.19;40.10;44.74;;
66335;Laerm;53138;51.496;6.410;2023-12-14T00:06:07;42.15;40.34;44.15;;
66335;Laerm;53138;51.496;6.410;2023-12-14T00:06:18;42.06;39.64;49.10;;
66335;Laerm;53138;51.496;6.410;2023-12-14T00:06:28;41.90;39.66;44.86;;
66335;Laerm;53138;51.496;6.410;2023-12-14T00:06:38;42.14;39.53;44.47;;
66335;Laerm;53138;51.496;6.410;2023-12-14T00:06:49;41.87;39.61;44.70;;
66335;Laerm;53138;51.496;6.410;2023-12-14T00:06:59;42.13;39.97;44.89;;
66335;Laerm;53138;51.496;6.410;2023-12-14T00:07:09;42.12;40.18;44.87;;
66335;Laerm;53138;51.496;6.410;2023-12-14T00:07:24;41.97;39.84;44.64;;
66335;Laerm;53138;51.496;6.410;2023-12-14T00:07:34;41.94;39.63;44.33;;
66335;Laerm;53138;51.496;6.410;2023-12-14T00:07:44;42.53;39.63;45.51;;
66335;Laerm;53138;51.496;6.410;2023-12-14T00:07:55;42.33;40.37;44.92;;
66335;Laerm;53138;51.496;6.410;2023-12-14T00:08:05;42.09;39.82;46.20;;
66335;Laerm;53138;51.496;6.410;2023-12-14T00:08:15;43.45;40.18;52.89;;
66335;Laerm;53138;51.496;6.410;2023-12-14T00:08:25;42.36;39.46;45.55;;
66335;Laerm;53138;51.496;6.410;2023-12-14T00:08:36;42.77;40.00;46.17;;
66335;Laerm;53138;51.496;6.410;2023-12-14T00:08:46;43.51;40.00;53.55;;
66335;Laerm;53138;51.496;6.410;2023-12-14T00:08:56;43.61;40.46;49.76;;
66335;Laerm;53138;51.496;6.410;2023-12-14T00:09:06;43.37;40.94;48.07;;
66335;Laerm;53138;51.496;6.410;2023-12-14T00:09:18;43.10;40.75;50.14;;
66335;Laerm;53138;51.496;6.410;2023-12-14T00:09:28;43.89;40.39;56.74;;
66335;Laerm;53138;51.496;6.410;2023-12-14T00:09:38;42.79;40.17;45.27;;
66335;Laerm;53138;51.496;6.410;2023-12-14T00:09:48;42.45;40.59;44.60;;
66335;Laerm;53138;51.496;6.410;2023-12-14T00:09:59;42.69;40.36;47.20;;
66335;Laerm;53138;51.496;6.410;2023-12-14T00:10:09;42.48;40.61;44.58;;
66335;Laerm;53138;51.496;6.410;2023-12-14T00:10:19;42.59;40.02;45.28;;
66335;Laerm;53138;51.496;6.410;2023-12-14T00:10:30;42.65;40.24;45.59;;
66335;Laerm;53138;51.496;6.410;2023-12-14T00:10:40;42.70;40.40;44.95;;
66335;Laerm;53138;51.496;6.410;2023-12-14T00:10:50;42.41;40.38;48.60;;
66335;Laerm;53138;51.496;6.410;2023-12-14T00:11:04;42.40;38.91;44.82;;
66335;Laerm;53138;51.496;6.410;2023-12-14T00:11:15;42.75;40.25;46.90;;
66335;Laerm;53138;51.496;6.410;2023-12-14T00:11:25;42.68;40.39;47.52;;
66335;Laerm;53138;51.496;6.410;2023-12-14T00:11:38;42.56;40.19;44.35;;
66335;Laerm;53138;51.496;6.410;2023-12-14T00:11:49;42.80;40.69;45.26;;
66335;Laerm;53138;51.496;6.410;2023-12-14T00:11:59;42.49;40.79;44.57;;
66335;Laerm;53138;51.496;6.410;2023-12-14T00:12:09;42.79;39.50;45.22;;
66335;Laerm;53138;51.496;6.410;2023-12-14T00:12:19;43.01;40.07;45.03;;
66335;Laerm;53138;51.496;6.410;2023-12-14T00:12:30;42.93;40.68;45.19;;
66335;Laerm;53138;51.496;6.410;2023-12-14T00:12:40;43.04;40.33;50.19;;
66335;Laerm;53138;51.496;6.410;2023-12-14T00:12:51;42.87;40.66;45.56;;
66335;Laerm;53138;51.496;6.410;2023-12-14T00:13:02;42.78;40.41;45.52;;
66335;Laerm;53138;51.496;6.410;2023-12-14T00:13:14;43.16;40.55;47.23;;
66335;Laerm;53138;51.496;6.410;2023-12-14T00:13:24;43.26;40.82;45.16;;
66335;Laerm;53138;51.496;6.410;2023-12-14T00:13:34;42.94;40.56;45.29;;
66335;Laerm;53138;51.496;6.410;2023-12-14T00:13:45;42.90;40.22;44.79;;
66335;Laerm;53138;51.496;6.410;2023-12-14T00:13:55;43.06;41.20;45.62;;
66335;Laerm;53138;51.496;6.410;2023-12-14T00:14:06;43.84;41.66;46.23;;
66335;Laerm;53138;51.496;6.410;2023-12-14T00:14:16;44.08;41.69;49.71;;
66335;Laerm;53138;51.496;6.410;2023-12-14T00:14:26;44.57;41.38;52.41;;
66335;Laerm;53138;51.496;6.410;2023-12-14T00:14:37;43.45;40.81;48.29;;
66335;Laerm;53138;51.496;6.410;2023-12-14T00:14:47;43.50;41.05;45.61;;
66335;Laerm;53138;51.496;6.410;2023-12-14T00:14:57;43.19;40.62;47.71;;
66335;Laerm;53138;51.496;6.410;2023-12-14T00:15:07;43.22;40.92;45.98;;
66335;Laerm;53138;51.496;6.410;2023-12-14T00:15:17;43.48;41.06;46.63;;
66335;Laerm;53138;51.496;6.410;2023-12-14T00:15:28;43.41;41.31;49.55;;
66335;Laerm;53138;51.496;6.410;2023-12-14T00:15:38;43.12;40.95;47.00;;
66335;Laerm;53138;51.496;6.410;2023-12-14T00:15:48;43.39;40.95;45.88;;
66335;Laerm;53138;51.496;6.410;2023-12-14T00:16:00;43.50;41.21;46.82;;
66335;Laerm;53138;51.496;6.410;2023-12-14T00:16:10;43.25;40.99;45.83;;
66335;Laerm;53138;51.496;6.410;2023-12-14T00:16:20;43.88;41.05;46.80;;
66335;Laerm;53138;51.496;6.410;2023-12-14T00:16:31;43.25;41.15;45.34;;
66335;Laerm;53138;51.496;6.410;2023-12-14T00:16:41;43.49;40.38;46.79;;
66335;Laerm;53138;51.496;6.410;2023-12-14T00:16:51;43.15;41.11;45.45;;
66335;Laerm;53138;51.496;6.410;2023-12-14T00:17:02;43.22;41.03;45.39;;
66335;Laerm;53138;51.496;6.410;2023-12-14T00:17:13;43.29;40.95;48.56;;
66335;Laerm;53138;51.496;6.410;2023-12-14T00:17:23;43.44;41.05;46.69;;
66335;Laerm;53138;51.496;6.410;2023-12-14T00:17:33;43.62;40.76;46.46;;
66335;Laerm;53138;51.496;6.410;2023-12-14T00:17:43;43.54;40.74;46.53;;
66335;Laerm;53138;51.496;6.410;2023-12-14T00:17:54;43.46;41.21;47.91;;
66335;Laerm;53138;51.496;6.410;2023-12-14T00:18:04;43.76;41.13;47.06;;
66335;Laerm;53138;51.496;6.410;2023-12-14T00:18:16;43.60;41.60;49.76;;
66335;Laerm;53138;51.496;6.410;2023-12-14T00:18:26;43.12;40.59;46.68;;
66335;Laerm;53138;51.496;6.410;2023-12-14T00:18:36;42.86;40.52;45.20;;
66335;Laerm;53138;51.496;6.410;2023-12-14T00:18:47;43.14;40.00;46.41;;
66335;Laerm;53138;51.496;6.410;2023-12-14T00:18:58;43.00;40.45;45.67;;
66335;Laerm;53138;51.496;6.410;2023-12-14T00:19:08;42.64;40.88;44.73;;
66335;Laerm;53138;51.496;6.410;2023-12-14T00:19:18;43.00;40.17;47.10;;
66335;Laerm;53138;51.496;6.410;2023-12-14T00:19:28;43.33;40.95;45.50;;
66335;Laerm;53138;51.496;6.410;2023-12-14T00:19:38;43.56;41.64;45.54;;
66335;Laerm;53138;51.496;6.410;2023-12-14T00:19:49;44.05;41.40;48.81;;
66335;Laerm;53138;51.496;6.410;2023-12-14T00:19:59;44.32;40.66;48.03;;
66335;Laerm;53138;51.496;6.410;2023-12-14T00:20:09;43.36;41.00;45.57;;
66335;Laerm;53138;51.496;6.410;2023-12-14T00:20:20;43.44;41.40;46.19;;
66335;Laerm;53138;51.496;6.410;2023-12-14T00:20:31;43.61;41.14;47.20;;
66335;Laerm;53138;51.496;6.410;2023-12-14T00:20:41;43.40;41.17;48.86;;
66335;Laerm;53138;51.496;6.410;2023-12-14T00:20:51;44.03;41.77;46.90;;
66335;Laerm;53138;51.496;6.410;2023-12-14T00:21:02;43.87;41.37;46.88;;
66335;Laerm;53138;51.496;6.410;2023-12-14T00:21:13;43.54;41.03;46.10;;
66335;Laerm;53138;51.496;6.410;2023-12-14T00:21:23;43.87;41.60;45.70;;
66335;Laerm;53138;51.496;6.410;2023-12-14T00:21:33;44.77;42.32;47.09;;
66335;Laerm;53138;51.496;6.410;2023-12-14T00:21:43;43.71;41.30;46.10;;
66335;Laerm;53138;51.496;6.410;2023-12-14T00:21:54;43.09;40.84;45.36;;
66335;Laerm;53138;51.496;6.410;2023-12-14T00:22:04;43.00;40.79;45.16;;
66335;Laerm;53138;51.496;6.410;2023-12-14T00:22:14;43.51;41.20;49.24;;
66335;Laerm;53138;51.496;6.410;2023-12-14T00:22:25;43.29;41.38;46.03;;
66335;Laerm;53138;51.496;6.410;2023-12-14T00:22:35;43.06;40.79;46.01;;
66335;Laerm;53138;51.496;6.410;2023-12-14T00:22:45;43.21;41.06;46.61;;
66335;Laerm;53138;51.496;6.410;2023-12-14T00:22:56;42.99;41.03;45.72;;
66335;Laerm;53138;51.496;6.410;2023-12-14T00:23:06;43.00;40.66;48.19;;
66335;Laerm;53138;51.496;6.410;2023-12-14T00:23:16;42.44;40.38;44.63;;
66335;Laerm;53138;51.496;6.410;2023-12-14T00:23:26;42.59;40.20;46.16;;
66335;Laerm;53138;51.496;6.410;2023-12-14T00:23:37;42.93;40.35;47.73;;
66335;Laerm;53138;51.496;6.410;2023-12-14T00:23:47;42.56;40.20;45.24;;
66335;Laerm;53138;51.496;6.410;2023-12-14T00:23:57;42.52;39.86;45.78;;
66335;Laerm;53138;51.496;6.410;2023-12-14T00:24:07;42.70;40.21;44.99;;
66335;Laerm;53138;51.496;6.410;2023-12-14T00:24:17;42.75;39.90;44.68;;
66335;Laerm;53138;51.496;6.410;2023-12-14T00:24:28;42.62;40.29;44.59;;
66335;Laerm;53138;51.496;6.410;2023-12-14T00:24:38;42.61;39.97;45.52;;
66335;Laerm;53138;51.496;6.410;2023-12-14T00:24:48;42.97;41.01;48.23;;
66335;Laerm;53138;51.496;6.410;2023-12-14T00:24:58;42.66;40.42;44.96;;
66335;Laerm;53138;51.496;6.410;2023-12-14T00:25:09;42.61;40.18;44.62;;
66335;Laerm;53138;51.496;6.410;2023-12-14T00:25:19;42.81;40.61;45.34;;
66335;Laerm;53138;51.496;6.410;2023-12-14T00:25:29;42.67;39.67;44.94;;
66335;Laerm;53138;51.496;6.410;2023-12-14T00:25:39;42.86;41.03;44.91;;
66335;Laerm;53138;51.496;6.410;2023-12-14T00:25:50;42.75;40.66;45.03;;
66335;Laerm;53138;51.496;6.410;2023-12-14T00:26:00;42.75;40.61;44.80;;
66335;Laerm;53138;51.496;6.410;2023-12-14T00:26:10;42.82;40.27;47.81;;
66335;Laerm;53138;51.496;6.410;2023-12-14T00:26:21;42.71;40.72;45.69;;
66335;Laerm;53138;51.496;6.410;2023-12-14T00:26:31;43.06;40.05;45.22;;
66335;Laerm;53138;51.496;6.410;2023-12-14T00:26:41;43.08;40.99;44.97;;
66335;Laerm;53138;51.496;6.410;2023-12-14T00:26:51;42.94;40.76;46.18;;
66335;Laerm;53138;51.496;6.410;2023-12-14T00:27:02;43.13;40.88;47.34;;
66335;Laerm;53138;51.496;6.410;2023-12-14T00:27:12;45.53;41.25;54.96;;
66335;Laerm;53138;51.496;6.410;2023-12-14T00:27:22;43.33;40.82;46.33;;
66335;Laerm;53138;51.496;6.410;2023-12-14T00:27:32;43.20;40.53;45.56;;
66335;Laerm;53138;51.496;6.410;2023-12-14T00:27:42;43.66;41.12;46.50;;
66335;Laerm;53138;51.496;6.410;2023-12-14T00:27:53;43.68;41.21;45.99;;
66335;Laerm;53138;51.496;6.410;2023-12-14T00:28:03;43.37;40.71;51.41;;
66335;Laerm;53138;51.496;6.410;2023-12-14T00:28:13;44.32;41.09;49.06;;
66335;Laerm;53138;51.496;6.410;2023-12-14T00:28:23;43.28;40.95;45.41;;
66335;Laerm;53138;51.496;6.410;2023-12-14T00:28:34;43.43;41.17;46.13;;
66335;Laerm;53138;51.496;6.410;2023-12-14T00:28:44;43.66;40.91;54.60;;
66335;Laerm;53138;51.496;6.410;2023-12-14T00:28:54;42.69;40.51;46.66;;
66335;Laerm;53138;51.496;6.410;2023-12-14T00:29:04;42.75;40.76;48.09;;
66335;Laerm;53138;51.496;6.410;2023-12-14T00:29:15;43.45;40.89;51.80;;
66335;Laerm;53138;51.496;6.410;2023-12-14T00:29:25;47.41;41.17;59.52;;
66335;Laerm;53138;51.496;6.410;2023-12-14T00:29:35;43.78;40.62;55.61;;
66335;Laerm;53138;51.496;6.410;2023-12-14T00:29:45;44.12;40.63;52.82;;
66335;Laerm;53138;51.496;6.410;2023-12-14T00:29:55;44.06;41.92;47.45;;
66335;Laerm;53138;51.496;6.410;2023-12-14T00:30:06;43.81;40.72;50.60;;
66335;Laerm;53138;51.496;6.410;2023-12-14T00:30:16;45.06;41.38;55.96;;
66335;Laerm;53138;51.496;6.410;2023-12-14T00:30:26;44.20;41.55;50.99;;
66335;Laerm;53138;51.496;6.410;2023-12-14T00:30:37;43.11;40.76;45.03;;
66335;Laerm;53138;51.496;6.410;2023-12-14T00:30:47;42.98;40.93;45.13;;
66335;Laerm;53138;51.496;6.410;2023-12-14T00:30:57;43.13;40.97;46.78;;
66335;Laerm;53138;51.496;6.410;2023-12-14T00:31:07;42.78;40.58;45.81;;
66335;Laerm;53138;51.496;6.410;2023-12-14T00:31:18;44.05;40.66;46.57;;
66335;Laerm;53138;51.496;6.410;2023-12-14T00:31:28;43.39;41.28;45.88;;
66335;Laerm;53138;51.496;6.410;2023-12-14T00:31:40;43.61;40.84;52.44;;
66335;Laerm;53138;51.496;6.410;2023-12-14T00:31:50;43.76;40.61;56.65;;
66335;Laerm;53138;51.496;6.410;2023-12-14T00:32:00;42.57;40.30;45.24;;
66335;Laerm;53138;51.496;6.410;2023-12-14T00:32:10;42.54;40.05;44.68;;
66335;Laerm;53138;51.496;6.410;2023-12-14T00:32:21;42.58;40.39;44.48;;
66335;Laerm;53138;51.496;6.410;2023-12-14T00:32:31;43.04;40.32;45.69;;
66335;Laerm;53138;51.496;6.410;2023-12-14T00:32:41;43.06;41.08;45.28;;
66335;Laerm;53138;51.496;6.410;2023-12-14T00:32:51;43.75;40.71;47.08;;
66335;Laerm;53138;51.496;6.410;2023-12-14T00:33:02;43.54;40.62;47.63;;
66335;Laerm;53138;51.496;6.410;2023-12-14T00:33:12;43.59;40.74;49.60;;
66335;Laerm;53138;51.496;6.410;2023-12-14T00:33:22;43.66;40.25;48.33;;
66335;Laerm;53138;51.496;6.410;2023-12-14T00:33:33;43.65;40.15;53.82;;
66335;Laerm;53138;51.496;6.410;2023-12-14T00:33:43;42.94;39.60;46.22;;
66335;Laerm;53138;51.496;6.410;2023-12-14T00:33:54;42.95;40.00;47.30;;
66335;Laerm;53138;51.496;6.410;2023-12-14T00:34:05;43.17;40.58;46.63;;
66335;Laerm;53138;51.496;6.410;2023-12-14T00:34:16;43.31;40.34;47.54;;
66335;Laerm;53138;51.496;6.410;2023-12-14T00:34:26;43.24;39.84;48.26;;
66335;Laerm;53138;51.496;6.410;2023-12-14T00:34:36;43.66;39.38;50.36;;
66335;Laerm;53138;51.496;6.410;2023-12-14T00:34:47;43.11;40.80;46.51;;
66335;Laerm;53138;51.496;6.410;2023-12-14T00:34:57;43.66;39.54;47.43;;
66335;Laerm;53138;51.496;6.410;2023-12-14T00:35:07;42.81;40.48;46.21;;
66335;Laerm;53138;51.496;6.410;2023-12-14T00:35:17;43.84;40.42;51.81;;
66335;Laerm;53138;51.496;6.410;2023-12-14T00:35:28;42.43;40.10;45.31;;
66335;Laerm;53138;51.496;6.410;2023-12-14T00:35:38;42.76;40.39;47.52;;
66335;Laerm;53138;51.496;6.410;2023-12-14T00:35:48;44.32;40.24;53.91;;
66335;Laerm;53138;51.496;6.410;2023-12-14T00:35:58;42.85;40.40;47.06;;
66335;Laerm;53138;51.496;6.410;2023-12-14T00:36:08;43.56;40.96;55.50;;
66335;Laerm;53138;51.496;6.410;2023-12-14T00:36:19;43.26;40.45;48.46;;
66335;Laerm;53138;51.496;6.410;2023-12-14T00:36:29;42.80;40.97;45.08;;
66335;Laerm;53138;51.496;6.410;2023-12-14T00:36:40;43.19;40.65;45.61;;
66335;Laerm;53138;51.496;6.410;2023-12-14T00:36:50;43.50;41.28;45.88;;
66335;Laerm;53138;51.496;6.410;2023-12-14T00:37:00;43.44;40.75;46.79;;
66335;Laerm;53138;51.496;6.410;2023-12-14T00:37:10;43.38;40.79;45.87;;
66335;Laerm;53138;51.496;6.410;2023-12-14T00:37:21;43.50;41.42;45.63;;
66335;Laerm;53138;51.496;6.410;2023-12-14T00:37:31;44.11;41.67;51.36;;
66335;Laerm;53138;51.496;6.410;2023-12-14T00:37:41;43.46;40.86;46.06;;
66335;Laerm;53138;51.496;6.410;2023-12-14T00:37:52;43.74;41.23;46.08;;
66335;Laerm;53138;51.496;6.410;2023-12-14T00:38:02;43.69;41.12;45.61;;
66335;Laerm;53138;51.496;6.410;2023-12-14T00:38:12;43.59;40.99;50.17;;
66335;Laerm;53138;51.496;6.410;2023-12-14T00:38:22;43.57;41.76;46.05;;
66335;Laerm;53138;51.496;6.410;2023-12-14T00:38:33;43.67;41.53;46.03;;
66335;Laerm;53138;51.496;6.410;2023-12-14T00:38:43;43.41;41.45;45.91;;
66335;Laerm;53138;51.496;6.410;2023-12-14T00:38:53;43.85;40.99;46.34;;
66335;Laerm;53138;51.496;6.410;2023-12-14T00:39:04;44.42;41.48;55.55;;
66335;Laerm;53138;51.496;6.410;2023-12-14T00:39:15;43.87;41.11;47.43;;
66335;Laerm;53138;51.496;6.410;2023-12-14T00:39:25;44.14;41.20;54.04;;
66335;Laerm;53138;51.496;6.410;2023-12-14T00:39:35;46.77;41.13;62.35;;
66335;Laerm;53138;51.496;6.410;2023-12-14T00:39:46;45.89;41.36;57.46;;
66335;Laerm;53138;51.496;6.410;2023-12-14T00:39:56;44.05;41.92;48.84;;
66335;Laerm;53138;51.496;6.410;2023-12-14T00:40:06;43.95;41.81;46.93;;
66335;Laerm;53138;51.496;6.410;2023-12-14T00:40:17;43.76;41.77;47.40;;
66335;Laerm;53138;51.496;6.410;2023-12-14T00:40:27;43.99;41.12;46.47;;
66335;Laerm;53138;51.496;6.410;2023-12-14T00:40:37;44.15;41.69;47.59;;
66335;Laerm;53138;51.496;6.410;2023-12-14T00:40:47;43.94;41.27;48.34;;
66335;Laerm;53138;51.496;6.410;2023-12-14T00:40:57;43.96;41.55;48.08;;
66335;Laerm;53138;51.496;6.410;2023-12-14T00:41:08;43.71;41.29;46.48;;
66335;Laerm;53138;51.496;6.410;2023-12-14T00:41:18;43.73;41.44;46.11;;
66335;Laerm;53138;51.496;6.410;2023-12-14T00:41:28;43.97;41.35;48.06;;
66335;Laerm;53138;51.496;6.410;2023-12-14T00:41:38;44.25;41.22;47.82;;
66335;Laerm;53138;51.496;6.410;2023-12-14T00:41:48;44.09;41.45;46.27;;
66335;Laerm;53138;51.496;6.410;2023-12-14T00:41:59;45.22;42.22;48.26;;
66335;Laerm;53138;51.496;6.410;2023-12-14T00:42:09;44.72;42.50;47.43;;
66335;Laerm;53138;51.496;6.410;2023-12-14T00:42:19;45.21;41.26;50.07;;
66335;Laerm;53138;51.496;6.410;2023-12-14T00:42:29;44.79;42.19;47.90;;
66335;Laerm;53138;51.496;6.410;2023-12-14T00:42:39;44.88;42.41;47.14;;
66335;Laerm;53138;51.496;6.410;2023-12-14T00:42:50;44.22;41.68;46.56;;
66335;Laerm;53138;51.496;6.410;2023-12-14T00:43:00;44.15;41.81;46.40;;
66335;Laerm;53138;51.496;6.410;2023-12-14T00:43:10;43.99;41.73;46.66;;
66335;Laerm;53138;51.496;6.410;2023-12-14T00:43:21;44.32;42.11;46.38;;
66335;Laerm;53138;51.496;6.410;2023-12-14T00:43:31;44.28;41.86;47.79;;
66335;Laerm;53138;51.496;6.410;2023-12-14T00:43:41;44.27;41.51;46.84;;
66335;Laerm;53138;51.496;6.410;2023-12-14T00:43:52;44.49;41.58;47.10;;
66335;Laerm;53138;51.496;6.410;2023-12-14T00:44:02;44.26;41.03;46.36;;
66335;Laerm;53138;51.496;6.410;2023-12-14T00:44:12;44.39;42.05;46.58;;
66335;Laerm;53138;51.496;6.410;2023-12-14T00:44:22;44.09;41.22;46.35;;
66335;Laerm;53138;51.496;6.410;2023-12-14T00:44:33;44.06;41.60;49.60;;
66335;Laerm;53138;51.496;6.410;2023-12-14T00:44:43;44.75;41.32;56.02;;
66335;Laerm;53138;51.496;6.410;2023-12-14T00:44:53;44.71;41.80;56.17;;
66335;Laerm;53138;51.496;6.410;2023-12-14T00:45:03;44.83;41.86;49.40;;
66335;Laerm;53138;51.496;6.410;2023-12-14T00:45:14;44.59;41.58;46.98;;
66335;Laerm;53138;51.496;6.410;2023-12-14T00:45:24;44.62;41.48;46.89;;
66335;Laerm;53138;51.496;6.410;2023-12-14T00:45:34;44.32;41.33;47.15;;
66335;Laerm;53138;51.496;6.410;2023-12-14T00:45:44;44.55;41.96;47.20;;
66335;Laerm;53138;51.496;6.410;2023-12-14T00:45:55;43.63;41.04;47.54;;
66335;Laerm;53138;51.496;6.410;2023-12-14T00:46:06;43.73;41.21;46.63;;
66335;Laerm;53138;51.496;6.410;2023-12-14T00:46:16;43.90;41.19;46.10;;
66335;Laerm;53138;51.496;6.410;2023-12-14T00:46:27;43.96;41.58;46.18;;
66335;Laerm;53138;51.496;6.410;2023-12-14T00:46:37;44.36;41.53;48.81;;
66335;Laerm;53138;51.496;6.410;2023-12-14T00:46:47;44.40;42.13;47.62;;
66335;Laerm;53138;51.496;6.410;2023-12-14T00:46:57;44.47;41.52;47.31;;
66335;Laerm;53138;51.496;6.410;2023-12-14T00:47:09;44.22;41.41;50.11;;
66335;Laerm;53138;51.496;6.410;2023-12-14T00:47:19;44.03;41.09;47.48;;
66335;Laerm;53138;51.496;6.410;2023-12-14T00:47:29;44.33;40.91;47.28;;
66335;Laerm;53138;51.496;6.410;2023-12-14T00:47:39;44.48;41.84;48.62;;
66335;Laerm;53138;51.496;6.410;2023-12-14T00:47:50;44.82;41.42;47.68;;
66335;Laerm;53138;51.496;6.410;2023-12-14T00:48:00;44.45;41.20;49.20;;
66335;Laerm;53138;51.496;6.410;2023-12-14T00:48:10;44.36;41.25;47.39;;
66335;Laerm;53138;51.496;6.410;2023-12-14T00:48:20;44.68;41.64;50.47;;
66335;Laerm;53138;51.496;6.410;2023-12-14T00:48:31;44.64;41.95;50.88;;
66335;Laerm;53138;51.496;6.410;2023-12-14T00:48:41;44.52;42.11;47.33;;
66335;Laerm;53138;51.496;6.410;2023-12-14T00:48:51;44.76;41.27;51.99;;
66335;Laerm;53138;51.496;6.410;2023-12-14T00:49:01;45.04;41.97;47.94;;
66335;Laerm;53138;51.496;6.410;2023-12-14T00:49:12;45.23;42.27;50.93;;
66335;Laerm;53138;51.496;6.410;2023-12-14T00:49:22;44.54;41.47;47.62;;
66335;Laerm;53138;51.496;6.410;2023-12-14T00:49:32;44.32;41.57;46.93;;
66335;Laerm;53138;51.496;6.410;2023-12-14T00:49:42;44.79;41.55;50.73;;
66335;Laerm;53138;51.496;6.410;2023-12-14T00:49:53;44.24;41.84;46.27;;
66335;Laerm;53138;51.496;6.410;2023-12-14T00:50:03;44.01;42.10;46.07;;
66335;Laerm;53138;51.496;6.410;2023-12-14T00:50:14;44.07;41.71;46.13;;
66335;Laerm;53138;51.496;6.410;2023-12-14T00:50:24;44.00;41.58;46.64;;
66335;Laerm;53138;51.496;6.410;2023-12-14T00:50:34;43.89;41.11;47.92;;
66335;Laerm;53138;51.496;6.410;2023-12-14T00:50:45;44.53;41.91;51.63;;
66335;Laerm;53138;51.496;6.410;2023-12-14T00:50:55;44.69;41.76;53.01;;
66335;Laerm;53138;51.496;6.410;2023-12-14T00:51:05;44.38;40.62;54.26;;
66335;Laerm;53138;51.496;6.410;2023-12-14T00:51:15;44.34;41.53;52.84;;
66335;Laerm;53138;51.496;6.410;2023-12-14T00:51:26;44.17;41.57;49.08;;
66335;Laerm;53138;51.496;6.410;2023-12-14T00:51:36;44.10;41.07;46.61;;
66335;Laerm;53138;51.496;6.410;2023-12-14T00:51:48;43.39;40.55;51.64;;
66335;Laerm;53138;51.496;6.410;2023-12-14T00:51:58;43.73;40.64;47.03;;
66335;Laerm;53138;51.496;6.410;2023-12-14T00:52:08;43.89;41.21;46.65;;
66335;Laerm;53138;51.496;6.410;2023-12-14T00:52:18;43.45;40.96;45.86;;
66335;Laerm;53138;51.496;6.410;2023-12-14T00:52:29;43.78;40.97;46.40;;
66335;Laerm;53138;51.496;6.410;2023-12-14T00:52:39;43.72;41.43;47.54;;
66335;Laerm;53138;51.496;6.410;2023-12-14T00:52:49;44.08;41.75;47.15;;
66335;Laerm;53138;51.496;6.410;2023-12-14T00:52:59;44.32;41.48;48.62;;
66335;Laerm;53138;51.496;6.410;2023-12-14T00:53:10;44.38;40.38;52.91;;
66335;Laerm;53138;51.496;6.410;2023-12-14T00:53:20;43.71;41.14;46.94;;
66335;Laerm;53138;51.496;6.410;2023-12-14T00:53:30;44.20;41.07;51.46;;
66335;Laerm;53138;51.496;6.410;2023-12-14T00:53:41;44.23;39.50;51.08;;
66335;Laerm;53138;51.496;6.410;2023-12-14T00:53:51;44.80;41.82;49.35;;
66335;Laerm;53138;51.496;6.410;2023-12-14T00:54:01;44.42;41.12;48.00;;
66335;Laerm;53138;51.496;6.410;2023-12-14T00:54:11;44.22;41.02;47.01;;
66335;Laerm;53138;51.496;6.410;2023-12-14T00:54:21;43.73;39.96;46.22;;
66335;Laerm;53138;51.496;6.410;2023-12-14T00:54:32;44.35;40.62;46.91;;
66335;Laerm;53138;51.496;6.410;2023-12-14T00:54:42;44.11;41.28;46.95;;
66335;Laerm;53138;51.496;6.410;2023-12-14T00:54:52;44.97;40.72;56.31;;
66335;Laerm;53138;51.496;6.410;2023-12-14T00:55:02;44.35;40.96;46.69;;
66335;Laerm;53138;51.496;6.410;2023-12-14T00:55:13;44.72;40.77;47.33;;
66335;Laerm;53138;51.496;6.410;2023-12-14T00:55:23;44.47;41.36;47.71;;
66335;Laerm;53138;51.496;6.410;2023-12-14T00:55:33;44.19;40.14;46.65;;
66335;Laerm;53138;51.496;6.410;2023-12-14T00:55:44;45.02;41.17;51.44;;
66335;Laerm;53138;51.496;6.410;2023-12-14T00:55:55;44.34;40.58;46.81;;
66335;Laerm;53138;51.496;6.410;2023-12-14T00:56:07;44.34;40.95;46.90;;
66335;Laerm;53138;51.496;6.410;2023-12-14T00:56:17;44.65;41.34;47.40;;
66335;Laerm;53138;51.496;6.410;2023-12-14T00:56:28;44.37;40.54;52.02;;
66335;Laerm;53138;51.496;6.410;2023-12-14T00:56:38;44.29;40.66;47.27;;
66335;Laerm;53138;51.496;6.410;2023-12-14T00:56:48;44.72;42.11;47.62;;
66335;Laerm;53138;51.496;6.410;2023-12-14T00:56:58;44.88;41.61;47.66;;
66335;Laerm;53138;51.496;6.410;2023-12-14T00:57:09;44.68;41.71;48.18;;
66335;Laerm;53138;51.496;6.410;2023-12-14T00:57:19;44.64;41.45;47.38;;
66335;Laerm;53138;51.496;6.410;2023-12-14T00:57:29;44.25;40.76;49.30;;
66335;Laerm;53138;51.496;6.410;2023-12-14T00:57:39;44.08;40.79;47.76;;
66335;Laerm;53138;51.496;6.410;2023-12-14T00:57:50;43.84;41.24;46.38;;
66335;Laerm;53138;51.496;6.410;2023-12-14T00:58:00;44.10;41.49;46.64;;